Siasconset, Massachusetts
Current Conditions -  °F | °C
As of 2:53 AM on Sunday 26 Oct 2014 (Local Time) from KACK Reporting Station
Scattered Clouds Scattered Clouds  
Wind Chill: 61°   Ceiling: Unl
Heat Index: 61°   Visibility: 10mi
Dew Point: 53°   Wind: 16mph
Humidity: 75%   Direction: 250°WSW
Pressure: 29.49"   Gusts: NA
Location:  41.26°N, 69.97°W
Report Text: KACK 260653Z AUTO 25014KT 10SM SCT100 16/12 A2949 RMK AO2 SLP985 T01610117
Loading
Personal Weather Stations






























Interactive Weather Map
Tropical Storm Tracking
New forecast layout! Learn more

10-Day Weather Forecast

Advertisements
Track Severe Weather on mobile